West Wendover, Nevada
Current Conditions -  °F | °C
As of 10:15 AM on Thursday 27 Nov 2014 (Local Time) from KENV Reporting Station
Clear Clear  
Wind Chill: 38°   Ceiling: Unl
Heat Index: 41°   Visibility: 10mi
Dew Point: 28°   Wind: 5mph
Humidity: 61%   Direction: 260°W
Pressure: 30.3"   Gusts: NA
Location:  40.74°N, 114.07°W
Report Text: KENV 271715Z AUTO 26004KT 10SM CLR 05/M02 A3030 RMK AO1
Loading
Personal Weather Stations






























Interactive Weather Map New forecast layout! Learn more

10-Day Weather Forecast

Advertisements
Track Severe Weather on mobile